createdAt,value
2018-12-29T00:03:11.338Z,101422.20
2018-12-29T00:08:17.842Z,101423.59
2018-12-29T00:13:23.714Z,101424.56
2018-12-29T00:18:31.044Z,101428.34
2018-12-29T00:23:38.217Z,101432.80
2018-12-29T00:28:43.577Z,101433.47
2018-12-29T00:33:49.001Z,101433.91
2018-12-29T00:39:00.037Z,101435.56
2018-12-29T00:44:04.989Z,101431.17
2018-12-29T00:49:10.459Z,101427.19
2018-12-29T00:54:15.994Z,101432.89
2018-12-29T00:59:21.074Z,101431.49
2018-12-29T01:04:27.563Z,101430.34
2018-12-29T01:09:34.081Z,101426.87
2018-12-29T01:14:40.309Z,101428.02
2018-12-29T01:19:45.677Z,101421.35
2018-12-29T01:24:52.317Z,101423.69
2018-12-29T01:30:08.185Z,101418.12
2018-12-29T01:35:14.121Z,101409.59
2018-12-29T01:40:21.013Z,101408.55
2018-12-29T01:45:26.417Z,101413.73
2018-12-29T01:50:31.521Z,101407.89
2018-12-29T01:55:36.715Z,101414.97
2018-12-29T02:00:42.108Z,101418.23
2018-12-29T02:05:56.390Z,101425.55
2018-12-29T02:11:02.478Z,101412.53
2018-12-29T02:16:08.353Z,101412.59
2018-12-29T02:21:16.052Z,101411.95
2018-12-29T02:26:25.696Z,101406.70
2018-12-29T02:31:39.847Z,101416.21
2018-12-29T02:36:47.763Z,101414.34
2018-12-29T02:41:52.656Z,101405.27
2018-12-29T02:46:59.269Z,101390.75
2018-12-29T02:52:04.549Z,101385.68
2018-12-29T02:57:14.026Z,101387.91
2018-12-29T03:02:19.125Z,101382.03
2018-12-29T03:07:26.591Z,101380.06
2018-12-29T03:12:32.697Z,101383.79
2018-12-29T03:17:38.509Z,101390.50
2018-12-29T03:22:43.597Z,101389.89
2018-12-29T03:27:49.513Z,101382.13
2018-12-29T03:32:55.457Z,101380.73
2018-12-29T03:38:00.905Z,101372.31
2018-12-29T03:43:05.997Z,101374.73
2018-12-29T03:48:11.459Z,101355.96
2018-12-29T03:53:16.942Z,101356.13
2018-12-29T03:58:23.123Z,101356.31
2018-12-29T04:03:28.271Z,101357.44
2018-12-29T04:08:33.395Z,101350.26
2018-12-29T04:13:39.196Z,101351.80
2018-12-29T04:18:46.316Z,101349.79
2018-12-29T04:23:51.372Z,101353.16
2018-12-29T04:28:56.428Z,101357.73
2018-12-29T04:34:01.914Z,101346.63
2018-12-29T04:39:08.231Z,101355.01
2018-12-29T04:44:15.286Z,101359.69
2018-12-29T04:49:20.957Z,101365.04
2018-12-29T04:54:26.090Z,101360.57
2018-12-29T04:59:31.168Z,101362.58
2018-12-29T05:04:36.344Z,101355.09
2018-12-29T05:09:41.812Z,101356.11
2018-12-29T05:14:46.979Z,101364.95
2018-12-29T05:19:54.390Z,101368.81
2018-12-29T05:25:01.730Z,101373.94
2018-12-29T05:30:07.046Z,101369.95
2018-12-29T05:35:12.932Z,101362.58
2018-12-29T05:40:18.043Z,101377.31
2018-12-29T05:45:23.468Z,101377.10
2018-12-29T05:50:28.608Z,101379.45
2018-12-29T05:55:33.800Z,101377.45
2018-12-29T06:00:39.016Z,101383.19
2018-12-29T06:05:44.050Z,101379.16
2018-12-29T06:10:49.134Z,101389.68
2018-12-29T06:15:54.380Z,101386.13
2018-12-29T06:21:00.171Z,101389.11
2018-12-29T06:26:05.327Z,101392.73
2018-12-29T06:31:13.044Z,101400.20
2018-12-29T06:36:21.954Z,101397.56
2018-12-29T06:41:27.050Z,101389.02
2018-12-29T06:46:35.407Z,101391.64
2018-12-29T06:51:40.708Z,101395.16
2018-12-29T06:56:45.815Z,101404.36
2018-12-29T07:01:52.091Z,101406.77
2018-12-29T07:06:56.924Z,101408.80
2018-12-29T07:12:03.634Z,101407.56
2018-12-29T07:17:10.256Z,101413.88
2018-12-29T07:22:15.726Z,101423.69
2018-12-29T07:27:22.004Z,101424.21
2018-12-29T07:32:28.486Z,101424.58
2018-12-29T07:37:34.819Z,101430.39
2018-12-29T07:42:44.402Z,101424.70
2018-12-29T07:48:01.419Z,101431.41
2018-12-29T07:53:06.822Z,101431.84
2018-12-29T07:58:11.923Z,101438.59
2018-12-29T08:03:18.189Z,101433.33
2018-12-29T08:08:23.603Z,101433.02
2018-12-29T08:13:30.219Z,101423.64
2018-12-29T08:18:35.610Z,101428.16
2018-12-29T08:23:40.712Z,101433.08
2018-12-29T08:28:46.369Z,101432.06
2018-12-29T08:33:51.493Z,101430.97
2018-12-29T08:38:56.570Z,101442.28
2018-12-29T08:44:01.649Z,101440.53
2018-12-29T08:49:06.655Z,101446.80
2018-12-29T08:54:12.587Z,101438.91
2018-12-29T08:59:17.996Z,101448.95
2018-12-29T09:04:24.938Z,101453.16
2018-12-29T09:09:31.837Z,101454.38
2018-12-29T09:14:36.923Z,101443.73
2018-12-29T09:19:41.994Z,101452.33
2018-12-29T09:24:47.135Z,101452.86
2018-12-29T09:29:52.694Z,101450.22
2018-12-29T09:34:58.142Z,101451.11
2018-12-29T09:40:03.389Z,101462.94
2018-12-29T09:45:08.565Z,101461.70
2018-12-29T09:50:14.040Z,101454.56
2018-12-29T09:55:19.259Z,101452.19
2018-12-29T10:00:26.205Z,101457.36
2018-12-29T10:05:32.901Z,101446.08
2018-12-29T10:10:38.232Z,101433.08
2018-12-29T10:15:43.380Z,101424.16
2018-12-29T10:21:02.745Z,101411.00
2018-12-29T10:26:07.859Z,101401.97
2018-12-29T10:31:26.453Z,101393.23
2018-12-29T10:36:34.627Z,101396.32
2018-12-29T10:41:40.353Z,101405.51
2018-12-29T10:46:45.939Z,101382.44
2018-12-29T10:51:54.091Z,101375.97
2018-12-29T10:57:00.093Z,101365.97
2018-12-29T11:02:06.276Z,101357.32
2018-12-29T11:07:11.964Z,101360.48
2018-12-29T11:12:17.136Z,101347.24
2018-12-29T11:17:22.513Z,101348.77
2018-12-29T11:22:29.900Z,101352.64
2018-12-29T11:27:35.042Z,101341.98
2018-12-29T11:32:40.647Z,101334.42
2018-12-29T11:37:47.232Z,101329.02
2018-12-29T11:42:53.343Z,101330.85
2018-12-29T11:48:05.477Z,101309.40
2018-12-29T11:53:11.291Z,101288.31
2018-12-29T11:58:26.713Z,101287.28
2018-12-29T12:03:31.999Z,101288.88
2018-12-29T12:08:37.180Z,101295.66
2018-12-29T12:13:42.352Z,101277.17
2018-12-29T12:18:47.919Z,101265.66
2018-12-29T12:23:53.689Z,101259.34
2018-12-29T12:29:07.946Z,101266.45
2018-12-29T12:34:13.449Z,101252.91
2018-12-29T12:39:19.580Z,101254.09
2018-12-29T12:44:25.837Z,101253.67
2018-12-29T12:49:31.274Z,101255.67
2018-12-29T12:54:38.088Z,101254.53
2018-12-29T12:59:52.759Z,101246.22
2018-12-29T13:05:00.256Z,101245.33
2018-12-29T13:10:06.210Z,101240.13
2018-12-29T13:15:13.267Z,101238.80
2018-12-29T13:20:18.560Z,101235.73
2018-12-29T13:25:23.702Z,101230.53
2018-12-29T13:30:28.969Z,101236.92
2018-12-29T13:35:34.457Z,101222.36
2018-12-29T13:40:40.697Z,101219.66
2018-12-29T13:45:46.644Z,101222.25
2018-12-29T13:50:52.456Z,101225.88
2018-12-29T13:55:57.567Z,101219.62
2018-12-29T14:01:02.689Z,101232.77
2018-12-29T14:06:09.139Z,101225.27
2018-12-29T14:11:15.429Z,101231.38
2018-12-29T14:16:21.127Z,101238.44
2018-12-29T14:21:26.934Z,101257.16
2018-12-29T14:26:33.158Z,101242.29
2018-12-29T14:31:42.937Z,101234.05
2018-12-29T14:36:48.502Z,101233.86
2018-12-29T14:41:55.150Z,101250.60
2018-12-29T14:47:00.686Z,101242.92
2018-12-29T14:52:06.161Z,101224.20
2018-12-29T14:57:14.374Z,101210.80
2018-12-29T15:02:23.616Z,101213.56
2018-12-29T15:07:29.803Z,101197.11
2018-12-29T15:12:42.797Z,101191.05
2018-12-29T15:17:50.816Z,101188.48
2018-12-29T15:22:56.338Z,101186.41
2018-12-29T15:28:02.664Z,101177.48
2018-12-29T15:33:09.493Z,101156.34
2018-12-29T15:38:15.440Z,101151.53
2018-12-29T15:43:21.938Z,101154.82
2018-12-29T15:48:28.064Z,101139.91
2018-12-29T15:53:33.229Z,101136.97
2018-12-29T15:58:39.075Z,101138.84
2018-12-29T16:03:44.799Z,101121.16
2018-12-29T16:08:51.347Z,101121.23
2018-12-29T16:13:57.125Z,101106.90
2018-12-29T16:19:02.899Z,101102.03
2018-12-29T16:24:08.721Z,101097.22
2018-12-29T16:29:13.872Z,101084.05
2018-12-29T16:34:19.074Z,101078.34
2018-12-29T16:39:24.487Z,101065.61
2018-12-29T16:44:31.075Z,101065.84
2018-12-29T16:49:38.684Z,101057.94
2018-12-29T16:54:46.227Z,101045.06
2018-12-29T16:59:51.918Z,101031.41
2018-12-29T17:04:57.970Z,101023.80
2018-12-29T17:10:03.903Z,101034.88
2018-12-29T17:15:09.177Z,101038.06
2018-12-29T17:20:17.319Z,101037.52
2018-12-29T17:25:26.438Z,101033.85
2018-12-29T17:30:32.754Z,101028.70
2018-12-29T17:35:42.894Z,101041.05
2018-12-29T17:40:57.641Z,101056.70
2018-12-29T17:46:03.448Z,101050.16
2018-12-29T17:51:09.512Z,101057.22
2018-12-29T17:56:14.789Z,101061.00
2018-12-29T18:01:20.296Z,101064.40
2018-12-29T18:06:26.702Z,101057.52
2018-12-29T18:11:32.342Z,101074.77
2018-12-29T18:16:39.184Z,101004.19
2018-12-29T18:21:50.956Z,101020.14
2018-12-29T18:26:59.200Z,100979.75
2018-12-29T18:32:06.024Z,100973.05
2018-12-29T18:37:12.565Z,100970.41
2018-12-29T18:42:18.750Z,100945.49
2018-12-29T18:47:27.193Z,100934.84
2018-12-29T18:52:34.973Z,100916.09
2018-12-29T18:57:42.647Z,100896.91
2018-12-29T19:02:49.433Z,100889.71
2018-12-29T19:08:01.232Z,100886.77
2018-12-29T19:13:10.946Z,100899.42
2018-12-29T19:18:16.195Z,100872.44
2018-12-29T19:23:23.466Z,100866.03
2018-12-29T19:28:29.119Z,100872.19
2018-12-29T19:33:36.348Z,100849.64
2018-12-29T19:38:45.858Z,100818.41
2018-12-29T19:43:51.861Z,100797.80
2018-12-29T19:49:21.867Z,100787.68
2018-12-29T19:54:27.450Z,100773.33
2018-12-29T19:59:40.215Z,100761.78
2018-12-29T20:04:48.022Z,100755.70
2018-12-29T20:10:11.412Z,100745.06
2018-12-29T20:15:16.822Z,100730.54
2018-12-29T20:20:23.436Z,100729.98
2018-12-29T20:25:30.946Z,100732.84
2018-12-29T20:30:41.610Z,100712.24
2018-12-29T20:35:49.431Z,100681.88
2018-12-29T20:40:58.701Z,100679.89
2018-12-29T20:46:07.303Z,100657.88
2018-12-29T20:51:25.537Z,100660.46
2018-12-29T20:56:30.973Z,100655.57
2018-12-29T21:02:03.163Z,100642.03
2018-12-29T21:07:33.376Z,100655.00
2018-12-29T21:12:39.914Z,100629.53
2018-12-29T21:17:45.729Z,100622.45
2018-12-29T21:22:53.130Z,100615.17
2018-12-29T21:27:59.274Z,100609.75
2018-12-29T21:33:04.664Z,100591.40
2018-12-29T21:38:22.921Z,100582.28
2018-12-29T21:43:29.576Z,100568.24
2018-12-29T21:48:45.904Z,100566.19
2018-12-29T21:53:53.594Z,100558.63
2018-12-29T21:59:06.072Z,100550.87
2018-12-29T22:04:14.180Z,100555.03
2018-12-29T22:09:39.194Z,100546.10
2018-12-29T22:14:50.661Z,100534.98
2018-12-29T22:19:59.430Z,100524.25
2018-12-29T22:25:05.751Z,100528.70
2018-12-29T22:30:12.061Z,100522.53
2018-12-29T22:35:20.422Z,100520.86
2018-12-29T22:40:38.694Z,100511.23
2018-12-29T22:45:49.800Z,100524.23
2018-12-29T22:50:56.211Z,100502.68
2018-12-29T22:56:03.136Z,100500.97
2018-12-29T23:01:10.497Z,100498.95
2018-12-29T23:06:16.615Z,100492.41
2018-12-29T23:11:29.264Z,100490.84
2018-12-29T23:16:36.258Z,100476.56
2018-12-29T23:22:07.138Z,100472.44
2018-12-29T23:27:14.514Z,100460.08
2018-12-29T23:32:21.656Z,100462.22
2018-12-29T23:37:31.789Z,100453.89
2018-12-29T23:42:47.874Z,100457.87
2018-12-29T23:47:55.791Z,100455.81
2018-12-29T23:53:04.716Z,100455.63
2018-12-29T23:58:10.939Z,100454.16
